Time;durP1;ratioP1;P1;durP2;ratioP2;P2;SDS_P1;SDS_P2;PMS_P1;PMS_P2;Temp;Humidity;BMP_temperature;BMP_pressure;BME280_temperature;BME280_humidity;BME280_pressure;Samples;Min_cycle;Max_cycle;Signal;HPM_P1;HPM_P2
2022/11/23 00:00:12;;;;;;;4.40;1.33;;;8.50;99.90;;;;;;5090397;28;20252;-33
2022/11/23 00:02:37;;;;;;;5.30;1.50;;;8.50;99.90;;;;;;5114413;27;20710;-33
2022/11/23 00:05:03;;;;;;;4.50;1.20;;;8.70;99.90;;;;;;5109045;27;20492;-38
2022/11/23 00:07:29;;;;;;;2.70;1.60;;;8.70;99.90;;;;;;5089451;28;20646;-36
2022/11/23 00:09:54;;;;;;;1.60;1.30;;;8.60;99.90;;;;;;5094391;27;20441;-37
2022/11/23 00:12:20;;;;;;;5.53;1.43;;;8.60;99.90;;;;;;5115172;27;20181;-36
2022/11/23 00:14:46;;;;;;;3.77;1.87;;;8.50;99.90;;;;;;5089166;28;20184;-32
2022/11/23 00:17:11;;;;;;;5.80;1.73;;;8.50;99.90;;;;;;5087691;28;20184;-37
2022/11/23 00:19:37;;;;;;;5.00;1.50;;;8.70;99.90;;;;;;5088956;28;20275;-34
2022/11/23 00:22:03;;;;;;;3.40;1.63;;;8.60;99.90;;;;;;5088790;28;20185;-34
2022/11/23 00:24:28;;;;;;;2.50;1.00;;;8.60;99.90;;;;;;5106037;27;20201;-35
2022/11/23 00:26:54;;;;;;;3.57;1.80;;;8.70;99.90;;;;;;5097946;27;20188;-32
2022/11/23 00:29:20;;;;;;;3.27;1.63;;;8.40;99.90;;;;;;5109249;28;20838;-30
2022/11/23 00:31:45;;;;;;;3.87;1.30;;;8.70;99.90;;;;;;5109233;28;20184;-35
2022/11/23 00:34:11;;;;;;;3.20;1.50;;;8.60;99.90;;;;;;5107944;28;20608;-32
2022/11/23 00:36:36;;;;;;;3.17;1.90;;;8.60;99.90;;;;;;5109031;28;20752;-34
2022/11/23 00:39:02;;;;;;;6.10;1.67;;;8.60;99.90;;;;;;5108711;28;20828;-36
2022/11/23 00:41:28;;;;;;;3.77;1.70;;;8.90;99.90;;;;;;5108998;28;20259;-38
2022/11/23 00:43:53;;;;;;;5.17;1.33;;;8.70;99.90;;;;;;5092326;28;20239;-31
2022/11/23 00:46:25;;;;;;;2.67;1.20;;;8.60;99.90;;;;;;5088875;28;20189;-35
2022/11/23 00:48:52;;;;;;;6.90;1.57;;;8.90;99.90;;;;;;5088236;28;20749;-35
2022/11/23 00:51:25;;;;;;;7.07;1.30;;;8.80;99.90;;;;;;5088571;28;20962;-35
2022/11/23 00:53:51;;;;;;;3.50;1.50;;;8.70;99.90;;;;;;5088146;28;20982;-32
2022/11/23 00:56:19;;;;;;;4.70;2.10;;;8.70;99.90;;;;;;5099114;28;20470;-35
2022/11/23 00:58:49;;;;;;;3.70;1.50;;;8.80;99.90;;;;;;5108403;28;20409;-35
2022/11/23 01:01:17;;;;;;;3.47;1.30;;;8.80;99.90;;;;;;5109489;28;20418;-32
2022/11/23 01:03:46;;;;;;;4.90;1.20;;;8.70;99.90;;;;;;5108255;28;20478;-34
2022/11/23 01:06:15;;;;;;;8.17;1.60;;;8.70;99.90;;;;;;5108730;28;20430;-32
2022/11/23 01:08:41;;;;;;;2.30;1.20;;;9.10;99.90;;;;;;5108206;28;20823;-34
2022/11/23 01:11:10;;;;;;;2.70;1.13;;;8.80;99.90;;;;;;5108969;28;20454;-34
2022/11/23 01:13:40;;;;;;;2.30;0.90;;;8.80;99.90;;;;;;5108365;28;20406;-34
2022/11/23 01:16:23;;;;;;;2.10;1.00;;;8.90;99.90;;;;;;5108942;28;20539;-34
2022/11/23 01:18:53;;;;;;;4.80;1.40;;;9.10;99.90;;;;;;5108216;28;20500;-38
2022/11/23 01:21:18;;;;;;;2.37;1.20;;;8.80;99.90;;;;;;5111730;28;20432;-35
2022/11/23 01:23:44;;;;;;;1.77;1.03;;;8.90;99.90;;;;;;5114897;27;20413;-37
2022/11/23 01:26:10;;;;;;;2.13;1.30;;;8.90;99.90;;;;;;5115609;27;20237;-36
2022/11/23 01:28:37;;;;;;;2.13;1.17;;;8.90;99.90;;;;;;5115034;27;20298;-33
2022/11/23 01:31:08;;;;;;;6.13;1.40;;;8.90;99.90;;;;;;5115230;27;20409;-32
2022/11/23 01:33:35;;;;;;;2.20;1.20;;;8.90;99.90;;;;;;5114277;27;20417;-37
2022/11/23 01:36:07;;;;;;;2.40;1.30;;;8.90;99.90;;;;;;5115700;27;20488;-32
2022/11/23 01:38:33;;;;;;;4.13;1.23;;;8.90;99.90;;;;;;5115074;27;20413;-35
2022/11/23 01:40:58;;;;;;;2.40;1.00;;;9.00;99.90;;;;;;5115261;27;20462;-35
2022/11/23 01:43:25;;;;;;;2.73;1.57;;;8.90;99.90;;;;;;5114816;27;20191;-36
2022/11/23 01:46:01;;;;;;;4.37;1.40;;;8.90;99.90;;;;;;5115300;27;20194;-35
2022/11/23 01:48:35;;;;;;;2.57;1.10;;;9.00;99.90;;;;;;5114878;27;20958;-35
2022/11/23 01:51:04;;;;;;;4.47;1.23;;;9.10;99.90;;;;;;5115415;27;20401;-32
2022/11/23 01:53:32;;;;;;;4.60;1.33;;;9.00;99.90;;;;;;5115372;28;20755;-32
2022/11/23 01:56:03;;;;;;;3.00;1.37;;;9.10;99.90;;;;;;5114604;27;20523;-34
2022/11/23 01:58:33;;;;;;;2.93;1.40;;;9.00;99.90;;;;;;5115116;27;20444;-36
2022/11/23 02:00:59;;;;;;;1.20;1.03;;;9.00;99.90;;;;;;5115139;27;21005;-35
2022/11/23 02:03:27;;;;;;;4.87;1.17;;;9.20;99.90;;;;;;5114864;27;20492;-31
2022/11/23 02:06:00;;;;;;;3.03;1.30;;;9.00;99.90;;;;;;5115139;27;20191;-32
2022/11/23 02:08:27;;;;;;;2.87;1.40;;;9.00;99.90;;;;;;5114517;27;20445;-32
2022/11/23 02:10:55;;;;;;;2.23;1.37;;;9.00;99.90;;;;;;5113751;28;20401;-32
2022/11/23 02:13:22;;;;;;;3.40;1.23;;;9.00;99.90;;;;;;5115277;27;20454;-35
2022/11/23 02:15:48;;;;;;;1.70;1.30;;;9.20;99.90;;;;;;5113602;28;20915;-35
2022/11/23 02:18:36;;;;;;;2.90;1.70;;;9.00;99.90;;;;;;5115040;27;20413;-37
2022/11/23 02:21:03;;;;;;;1.97;0.90;;;9.00;99.90;;;;;;5114802;27;20416;-29
2022/11/23 02:23:57;;;;;;;2.13;1.50;;;8.90;99.90;;;;;;5114597;27;20416;-33
2022/11/23 02:26:26;;;;;;;2.70;1.40;;;9.00;99.90;;;;;;5115107;27;20405;-36
2022/11/23 02:29:19;;;;;;;5.57;1.80;;;9.00;99.90;;;;;;5114847;27;20453;-33
2022/11/23 02:31:45;;;;;;;3.00;1.73;;;9.00;99.90;;;;;;5114812;27;20474;-38
2022/11/23 02:34:10;;;;;;;3.20;1.60;;;9.10;99.90;;;;;;5109462;28;20955;-35
2022/11/23 02:36:45;;;;;;;5.30;1.30;;;9.00;99.90;;;;;;5111481;28;20566;-30
2022/11/23 02:39:11;;;;;;;3.10;1.50;;;9.10;99.90;;;;;;5111257;28;20240;-38
2022/11/23 02:41:47;;;;;;;4.20;1.30;;;9.10;99.90;;;;;;5111380;28;20936;-32
2022/11/23 02:44:40;;;;;;;1.57;1.23;;;9.10;99.90;;;;;;5111391;28;20228;-37
2022/11/23 02:47:06;;;;;;;1.43;1.00;;;9.10;99.90;;;;;;5111258;28;20449;-36
2022/11/23 02:49:32;;;;;;;4.80;1.73;;;9.10;99.90;;;;;;5109881;28;20769;-30
2022/11/23 02:51:58;;;;;;;1.27;0.90;;;9.10;99.90;;;;;;5109699;28;20401;-33
2022/11/23 02:54:23;;;;;;;2.43;1.30;;;9.30;99.90;;;;;;5110937;28;20649;-35
2022/11/23 02:56:49;;;;;;;3.90;1.23;;;9.10;99.90;;;;;;5111099;28;20272;-35
2022/11/23 02:59:15;;;;;;;5.37;1.50;;;9.10;99.90;;;;;;5110871;28;20164;-32
2022/11/23 03:01:40;;;;;;;3.90;1.80;;;9.00;99.90;;;;;;5109745;28;20650;-38
2022/11/23 03:04:07;;;;;;;2.73;1.30;;;9.20;99.90;;;;;;5110983;28;20205;-32
2022/11/23 03:06:33;;;;;;;4.20;1.10;;;9.20;99.90;;;;;;5110873;28;20187;-34
2022/11/23 03:08:58;;;;;;;2.93;1.00;;;9.30;99.90;;;;;;5110272;28;20458;-35
2022/11/23 03:11:24;;;;;;;1.80;1.00;;;9.20;99.90;;;;;;5111164;28;20425;-36
2022/11/23 03:13:50;;;;;;;3.83;1.27;;;9.10;99.90;;;;;;5110628;28;20178;-36
2022/11/23 03:16:15;;;;;;;4.40;1.20;;;9.10;99.90;;;;;;5110976;28;20172;-36
2022/11/23 03:18:41;;;;;;;3.50;1.40;;;9.10;99.90;;;;;;5110466;28;20205;-37
2022/11/23 03:21:08;;;;;;;2.57;1.50;;;9.30;99.90;;;;;;5109402;28;20653;-34
2022/11/23 03:23:34;;;;;;;3.83;1.50;;;9.40;99.90;;;;;;5110246;28;20410;-35
2022/11/23 03:26:00;;;;;;;4.83;1.27;;;9.40;99.90;;;;;;5110931;27;20414;-35
2022/11/23 03:28:25;;;;;;;2.63;1.50;;;9.00;99.90;;;;;;5109968;28;20804;-36
2022/11/23 03:30:51;;;;;;;2.50;1.63;;;9.30;99.90;;;;;;5110748;28;20183;-36
2022/11/23 03:33:18;;;;;;;2.30;1.03;;;9.00;99.90;;;;;;5109274;28;20184;-36
2022/11/23 03:35:44;;;;;;;2.63;1.67;;;9.30;99.90;;;;;;5109368;28;20191;-35
2022/11/23 03:38:10;;;;;;;1.93;1.20;;;9.20;99.90;;;;;;5110184;28;20420;-36
2022/11/23 03:40:35;;;;;;;2.37;1.10;;;9.20;99.90;;;;;;5110299;28;20414;-32
2022/11/23 03:43:01;;;;;;;1.77;1.07;;;9.10;99.90;;;;;;5110068;28;20414;-37
2022/11/23 03:45:27;;;;;;;2.53;1.47;;;9.30;99.90;;;;;;5108771;28;20180;-34
2022/11/23 03:47:52;;;;;;;3.30;1.20;;;9.10;99.90;;;;;;5108860;28;20208;-33
2022/11/23 03:50:18;;;;;;;2.83;1.33;;;9.10;99.90;;;;;;5109775;28;20207;-33
2022/11/23 03:52:44;;;;;;;2.50;1.00;;;9.10;99.90;;;;;;5109869;28;20184;-31
2022/11/23 03:55:09;;;;;;;3.27;1.47;;;9.20;99.90;;;;;;5110000;28;20176;-30
2022/11/23 03:57:35;;;;;;;2.80;1.27;;;9.10;99.90;;;;;;5110374;28;20183;-33
2022/11/23 04:00:01;;;;;;;2.90;1.17;;;9.30;99.90;;;;;;5109453;28;20186;-37
2022/11/23 04:02:27;;;;;;;3.30;1.47;;;9.10;99.90;;;;;;5109770;28;20220;-37
2022/11/23 04:04:52;;;;;;;2.07;1.40;;;9.10;99.90;;;;;;5109414;28;21170;-35
2022/11/23 04:07:18;;;;;;;2.37;1.50;;;8.90;99.90;;;;;;5108309;28;20690;-32
2022/11/23 04:09:44;;;;;;;3.80;1.43;;;9.10;99.90;;;;;;5109272;28;20172;-32
2022/11/23 04:12:09;;;;;;;2.47;1.40;;;9.00;99.90;;;;;;5109712;28;20183;-33
2022/11/23 04:14:36;;;;;;;2.17;1.37;;;8.90;99.90;;;;;;5109812;28;20182;-35
2022/11/23 04:17:02;;;;;;;4.20;1.70;;;8.90;99.90;;;;;;5108425;28;20397;-32
2022/11/23 04:19:28;;;;;;;4.83;1.73;;;9.00;99.90;;;;;;5108903;28;21099;-34
2022/11/23 04:21:54;;;;;;;2.03;1.20;;;8.80;99.90;;;;;;5109388;28;20417;-33
2022/11/23 04:24:19;;;;;;;4.47;1.73;;;9.00;99.90;;;;;;5116642;27;20913;-32
2022/11/23 04:26:45;;;;;;;2.70;1.30;;;9.00;99.90;;;;;;5130073;27;20409;-35
2022/11/23 04:29:11;;;;;;;1.93;1.40;;;8.90;99.90;;;;;;5129570;27;20207;-32
2022/11/23 04:31:37;;;;;;;2.20;1.17;;;9.00;99.90;;;;;;5129929;27;20797;-32
2022/11/23 04:34:03;;;;;;;1.10;1.00;;;8.90;99.90;;;;;;5128682;27;20424;-35
2022/11/23 04:36:29;;;;;;;2.40;1.20;;;8.90;99.90;;;;;;5128157;27;20179;-36
2022/11/23 04:38:55;;;;;;;2.03;1.00;;;8.90;99.90;;;;;;5129873;27;20607;-34
2022/11/23 04:41:21;;;;;;;2.67;1.37;;;8.90;99.90;;;;;;5128339;27;20412;-34
2022/11/23 04:43:47;;;;;;;2.13;1.20;;;8.90;99.90;;;;;;5129500;27;20618;-36
2022/11/23 04:46:13;;;;;;;2.40;1.40;;;8.90;99.90;;;;;;5129537;27;20416;-36
2022/11/23 04:48:39;;;;;;;2.07;1.10;;;8.90;99.90;;;;;;5129148;27;20965;-35
2022/11/23 04:51:05;;;;;;;2.77;1.37;;;9.00;99.90;;;;;;5129911;27;20408;-32
2022/11/23 04:53:31;;;;;;;3.83;1.40;;;8.90;99.90;;;;;;5129481;27;20625;-34
2022/11/23 04:55:56;;;;;;;2.93;1.20;;;9.00;99.90;;;;;;5119739;27;20493;-35
2022/11/23 04:58:22;;;;;;;2.03;1.23;;;9.00;99.90;;;;;;5108703;28;20195;-36
2022/11/23 05:00:48;;;;;;;1.67;1.20;;;9.00;99.90;;;;;;5108908;28;20189;-31
2022/11/23 05:03:13;;;;;;;6.57;1.40;;;9.00;99.90;;;;;;5108939;28;20189;-36
2022/11/23 05:05:40;;;;;;;5.03;1.53;;;8.90;99.90;;;;;;5108733;28;20195;-34
2022/11/23 05:08:06;;;;;;;4.40;1.60;;;9.10;99.90;;;;;;5108640;28;20229;-34
2022/11/23 05:10:32;;;;;;;1.63;1.30;;;8.80;99.90;;;;;;5108653;28;20410;-35
2022/11/23 05:12:58;;;;;;;5.87;1.40;;;8.90;99.90;;;;;;5107030;28;20404;-34
2022/11/23 05:15:23;;;;;;;4.13;1.87;;;8.80;99.90;;;;;;5109076;28;20225;-31
2022/11/23 05:17:49;;;;;;;4.60;1.77;;;9.10;99.90;;;;;;5107204;28;20179;-35
2022/11/23 05:20:15;;;;;;;2.63;1.20;;;8.90;99.90;;;;;;5106959;28;20586;-36
2022/11/23 05:22:40;;;;;;;3.20;1.97;;;8.90;99.90;;;;;;5107156;28;20513;-33
2022/11/23 05:25:06;;;;;;;3.23;1.50;;;8.90;99.90;;;;;;5122584;27;20417;-29
2022/11/23 05:27:32;;;;;;;4.67;1.30;;;8.90;99.90;;;;;;5129003;27;20219;-37
2022/11/23 05:29:58;;;;;;;3.30;2.10;;;9.00;99.90;;;;;;5128789;27;20409;-35
2022/11/23 05:32:23;;;;;;;5.80;1.77;;;8.80;99.90;;;;;;5128905;27;20272;-33
2022/11/23 05:34:49;;;;;;;2.23;1.67;;;8.70;99.90;;;;;;5127930;27;20522;-34
2022/11/23 05:37:15;;;;;;;3.90;1.70;;;8.80;99.90;;;;;;5117014;27;20545;-34
2022/11/23 05:39:40;;;;;;;3.63;1.73;;;8.80;99.90;;;;;;5106034;28;20195;-36
2022/11/23 05:42:06;;;;;;;3.13;1.63;;;8.80;99.90;;;;;;5108276;28;20183;-35
2022/11/23 05:44:32;;;;;;;2.90;1.83;;;8.80;99.90;;;;;;5098620;28;20185;-35
2022/11/23 05:46:58;;;;;;;2.90;1.50;;;8.70;99.90;;;;;;5088089;28;20182;-32
2022/11/23 05:49:23;;;;;;;4.80;1.60;;;8.70;99.90;;;;;;5087412;28;20176;-34
2022/11/23 05:51:49;;;;;;;4.37;1.57;;;8.70;99.90;;;;;;5088325;28;20798;-34
2022/11/23 05:54:15;;;;;;;4.57;1.63;;;8.70;99.90;;;;;;5086402;28;20176;-33
2022/11/23 05:56:40;;;;;;;4.73;1.97;;;8.90;99.90;;;;;;5103361;28;20229;-36
2022/11/23 05:59:06;;;;;;;3.73;1.53;;;8.80;99.90;;;;;;5108023;28;20199;-34
2022/11/23 06:01:33;;;;;;;4.30;1.60;;;8.80;99.90;;;;;;5108428;28;20280;-35
2022/11/23 06:03:58;;;;;;;7.23;2.17;;;8.80;99.90;;;;;;5107939;28;20908;-34
2022/11/23 06:06:24;;;;;;;5.60;1.60;;;8.90;99.90;;;;;;5108451;28;20528;-37
2022/11/23 06:08:50;;;;;;;3.00;1.90;;;8.70;99.90;;;;;;5110048;28;20207;-33
2022/11/23 06:11:15;;;;;;;3.37;1.37;;;9.00;99.90;;;;;;5112314;28;20367;-34
2022/11/23 06:13:41;;;;;;;3.70;1.73;;;8.80;99.90;;;;;;5111920;27;20180;-35
2022/11/23 06:16:07;;;;;;;3.83;1.67;;;8.80;99.90;;;;;;5110777;28;20183;-34
2022/11/23 06:18:32;;;;;;;4.50;1.90;;;8.70;99.90;;;;;;5111391;28;20183;-38
2022/11/23 06:21:00;;;;;;;2.87;1.70;;;9.00;99.90;;;;;;5112233;28;20222;-36
2022/11/23 06:23:26;;;;;;;2.40;1.37;;;9.00;99.90;;;;;;5110144;28;20188;-32
2022/11/23 06:25:52;;;;;;;4.07;2.07;;;8.80;99.90;;;;;;5111898;28;20455;-32
2022/11/23 06:28:18;;;;;;;7.17;2.00;;;8.90;99.90;;;;;;5111690;28;20455;-35
2022/11/23 06:30:43;;;;;;;5.90;2.23;;;8.90;99.90;;;;;;5098510;28;20219;-33
2022/11/23 06:33:09;;;;;;;3.13;1.70;;;8.90;99.90;;;;;;5090514;28;20177;-36
2022/11/23 06:35:35;;;;;;;3.47;2.00;;;8.90;99.90;;;;;;5096813;28;20175;-35
2022/11/23 06:38:00;;;;;;;3.20;1.40;;;8.80;99.90;;;;;;5111365;28;20184;-37
2022/11/23 06:40:27;;;;;;;2.57;1.40;;;8.90;99.90;;;;;;5105738;28;20679;-39
2022/11/23 06:42:58;;;;;;;2.87;1.60;;;8.80;99.90;;;;;;5110863;28;20719;-38
2022/11/23 06:45:24;;;;;;;4.27;1.93;;;9.00;99.90;;;;;;5111071;28;20462;-34
2022/11/23 06:47:52;;;;;;;3.63;1.53;;;9.00;99.90;;;;;;5111343;27;21053;-36
2022/11/23 06:50:18;;;;;;;4.97;1.90;;;8.90;99.90;;;;;;5110572;28;20182;-36
2022/11/23 06:52:44;;;;;;;4.40;2.10;;;9.00;99.90;;;;;;5111198;28;20409;-34
2022/11/23 06:55:09;;;;;;;5.30;2.00;;;8.80;99.90;;;;;;5111127;28;20176;-36
2022/11/23 06:57:35;;;;;;;5.00;2.33;;;8.90;99.90;;;;;;5110196;28;20657;-31
2022/11/23 07:00:01;;;;;;;3.07;2.07;;;8.90;99.90;;;;;;5103396;28;20685;-36
2022/11/23 07:02:26;;;;;;;3.07;1.90;;;8.80;99.90;;;;;;5101281;28;20188;-32
2022/11/23 07:04:52;;;;;;;6.03;2.17;;;8.90;99.90;;;;;;5109455;28;20309;-33
2022/11/23 07:07:18;;;;;;;4.70;2.00;;;8.80;99.90;;;;;;5111040;28;20729;-29
2022/11/23 07:09:43;;;;;;;3.60;1.80;;;8.80;99.90;;;;;;5110884;28;20194;-38
2022/11/23 07:12:09;;;;;;;4.00;1.60;;;8.90;99.90;;;;;;5110956;28;20684;-35
2022/11/23 07:14:34;;;;;;;3.13;1.50;;;8.70;99.90;;;;;;5110472;28;20647;-35
2022/11/23 07:17:00;;;;;;;3.20;1.90;;;8.70;99.90;;;;;;5109755;28;20172;-32
2022/11/23 07:19:26;;;;;;;5.90;1.83;;;8.80;99.90;;;;;;5109515;28;20262;-34
2022/11/23 07:21:51;;;;;;;3.73;1.90;;;8.80;99.90;;;;;;5111852;28;20252;-37
2022/11/23 07:24:17;;;;;;;5.57;1.80;;;8.80;99.90;;;;;;5117474;27;20210;-34
2022/11/23 07:26:43;;;;;;;3.03;1.57;;;8.80;99.90;;;;;;5130088;27;20175;-34
2022/11/23 07:29:09;;;;;;;3.40;1.60;;;8.80;99.90;;;;;;5130647;27;20210;-35
2022/11/23 07:31:35;;;;;;;6.43;1.80;;;8.90;99.90;;;;;;5131174;27;20538;-36
2022/11/23 07:34:00;;;;;;;4.20;1.50;;;8.80;99.90;;;;;;5129948;27;20412;-29
2022/11/23 07:36:26;;;;;;;2.50;1.20;;;8.80;99.90;;;;;;5131079;27;20384;-33
2022/11/23 07:38:52;;;;;;;4.13;1.60;;;8.80;99.90;;;;;;5130957;27;20421;-31
2022/11/23 07:41:17;;;;;;;4.30;1.47;;;8.80;99.90;;;;;;5110630;27;20188;-36
2022/11/23 07:43:43;;;;;;;4.00;1.13;;;8.80;99.90;;;;;;5089582;28;20264;-37
2022/11/23 07:46:08;;;;;;;4.00;1.60;;;8.80;99.90;;;;;;5094612;28;20180;-31
2022/11/23 07:48:34;;;;;;;3.63;1.40;;;8.80;99.90;;;;;;5110060;28;20203;-34
2022/11/23 07:51:00;;;;;;;2.80;1.77;;;8.70;99.90;;;;;;5110722;28;20175;-32
2022/11/23 07:53:26;;;;;;;2.57;1.20;;;8.90;99.90;;;;;;5109774;28;20176;-37
2022/11/23 07:55:56;;;;;;;4.23;1.70;;;8.90;99.90;;;;;;5110347;28;20187;-34
2022/11/23 07:58:22;;;;;;;3.30;1.47;;;8.80;99.90;;;;;;5100495;28;20412;-34
2022/11/23 08:00:47;;;;;;;3.40;1.20;;;8.80;99.90;;;;;;5108805;28;20406;-35
2022/11/23 08:03:13;;;;;;;4.13;1.77;;;8.90;99.90;;;;;;5109258;28;20817;-32
2022/11/23 08:05:39;;;;;;;3.53;1.40;;;9.00;99.90;;;;;;5099702;27;20211;-32
2022/11/23 08:08:05;;;;;;;2.60;1.30;;;9.00;99.90;;;;;;5107467;28;20214;-34
2022/11/23 08:10:31;;;;;;;2.93;1.50;;;9.20;99.90;;;;;;5109703;28;20195;-32
2022/11/23 08:12:58;;;;;;;2.70;1.30;;;9.40;99.90;;;;;;5100052;28;20183;-34
2022/11/23 08:15:26;;;;;;;4.97;2.03;;;9.40;99.90;;;;;;5090393;28;20439;-34
2022/11/23 08:18:00;;;;;;;5.23;1.70;;;9.70;99.90;;;;;;5097336;28;20430;-33
2022/11/23 08:20:27;;;;;;;5.83;1.83;;;9.50;99.90;;;;;;5104240;28;20454;-34
2022/11/23 08:22:55;;;;;;;4.90;1.63;;;9.50;99.90;;;;;;5106191;28;20509;-34
2022/11/23 08:25:26;;;;;;;5.03;2.00;;;9.50;99.90;;;;;;5114205;27;20417;-34
2022/11/23 08:28:00;;;;;;;4.30;1.67;;;9.30;99.90;;;;;;5103680;28;20523;-33
2022/11/23 08:30:27;;;;;;;6.87;1.77;;;9.50;99.90;;;;;;5097066;28;20405;-29
2022/11/23 08:32:53;;;;;;;4.03;1.63;;;9.40;99.90;;;;;;5096318;28;20808;-34
2022/11/23 08:35:19;;;;;;;4.93;1.57;;;9.40;99.90;;;;;;5088443;28;20540;-29
2022/11/23 08:37:44;;;;;;;3.20;1.87;;;9.60;99.90;;;;;;5099003;28;20390;-32
2022/11/23 08:40:11;;;;;;;4.07;1.60;;;9.60;99.90;;;;;;5100241;28;20418;-38
2022/11/23 08:42:36;;;;;;;4.43;1.90;;;9.80;99.90;;;;;;5109214;28;20176;-34
2022/11/23 08:45:04;;;;;;;3.20;1.30;;;10.00;99.90;;;;;;5107684;28;20834;-32
2022/11/23 08:47:31;;;;;;;4.93;1.47;;;10.30;99.90;;;;;;5109432;28;20711;-37
2022/11/23 08:49:57;;;;;;;6.00;1.80;;;10.50;99.90;;;;;;5108816;28;20947;-29
2022/11/23 08:52:23;;;;;;;3.70;1.33;;;10.60;99.90;;;;;;5089415;28;20410;-34
2022/11/23 08:54:48;;;;;;;3.67;2.00;;;10.80;99.90;;;;;;5088567;28;20346;-31
2022/11/23 08:57:14;;;;;;;3.30;1.50;;;10.80;99.90;;;;;;5108566;28;20551;-32
2022/11/23 08:59:40;;;;;;;5.13;1.30;;;10.80;99.90;;;;;;5109028;28;20174;-34
2022/11/23 09:02:05;;;;;;;2.80;1.50;;;10.90;99.90;;;;;;5107767;28;20183;-37
2022/11/23 09:04:31;;;;;;;2.77;1.80;;;11.00;99.90;;;;;;5108725;28;20567;-37
2022/11/23 09:06:57;;;;;;;4.93;1.90;;;11.10;99.90;;;;;;5090470;28;20196;-34
2022/11/23 09:09:22;;;;;;;3.27;1.50;;;11.20;99.90;;;;;;5108428;28;20496;-38
2022/11/23 09:11:48;;;;;;;7.47;1.70;;;11.30;99.90;;;;;;5108872;28;20192;-37
2022/11/23 09:14:14;;;;;;;4.27;1.47;;;11.40;99.90;;;;;;5108815;28;20203;-34
2022/11/23 09:16:40;;;;;;;4.47;1.67;;;11.40;99.90;;;;;;5108508;28;20522;-35
2022/11/23 09:19:07;;;;;;;6.00;1.47;;;11.50;99.90;;;;;;5107107;28;20433;-36
2022/11/23 09:21:34;;;;;;;3.43;1.60;;;11.70;99.90;;;;;;5095005;28;20176;-34
2022/11/23 09:24:00;;;;;;;6.10;2.10;;;11.80;99.90;;;;;;5096681;28;20834;-32
2022/11/23 09:26:26;;;;;;;4.57;1.33;;;11.90;99.90;;;;;;5111949;28;20421;-33
2022/11/23 09:28:52;;;;;;;6.00;1.73;;;11.90;99.90;;;;;;5093473;28;20454;-33
2022/11/23 09:31:18;;;;;;;3.90;1.63;;;11.90;99.90;;;;;;5095481;28;20186;-37
2022/11/23 09:33:43;;;;;;;5.63;3.23;;;11.90;99.90;;;;;;5099427;28;20207;-34
2022/11/23 09:36:09;;;;;;;3.63;1.83;;;11.90;99.90;;;;;;5098838;28;20182;-35
2022/11/23 09:38:35;;;;;;;5.40;1.53;;;12.00;99.90;;;;;;5095523;28;20579;-32
2022/11/23 09:41:37;;;;;;;3.40;1.10;;;12.10;99.90;;;;;;5088701;28;20176;-35
2022/11/23 09:44:12;;;;;;;7.43;1.80;;;12.20;99.90;;;;;;5092069;28;20225;-35
2022/11/23 09:47:05;;;;;;;5.33;1.40;;;12.20;99.90;;;;;;5092170;28;20821;-36
2022/11/23 09:49:40;;;;;;;8.90;2.03;;;12.30;99.90;;;;;;5099262;28;20463;-37
2022/11/23 09:52:18;;;;;;;9.37;1.83;;;12.40;99.90;;;;;;5110301;28;20473;-34
2022/11/23 09:54:45;;;;;;;3.53;1.90;;;12.50;99.90;;;;;;5110708;28;20412;-33
2022/11/23 09:57:17;;;;;;;3.47;1.63;;;12.60;99.90;;;;;;5111129;28;20946;-35
2022/11/23 10:00:18;;;;;;;2.70;1.57;;;12.70;99.90;;;;;;5111124;28;20911;-34
2022/11/23 10:02:44;;;;;;;4.97;2.57;;;12.80;99.90;;;;;;5109885;28;20783;-30
2022/11/23 10:05:22;;;;;;;4.40;1.87;;;13.10;99.90;;;;;;5110821;28;20935;-38
2022/11/23 10:08:14;;;;;;;9.93;2.10;;;13.20;99.90;;;;;;5111048;28;20509;-33
2022/11/23 10:10:43;;;;;;;4.57;1.80;;;13.20;99.90;;;;;;5112071;28;20926;-32
2022/11/23 10:13:37;;;;;;;5.83;1.97;;;13.60;99.90;;;;;;5112118;28;20494;-37
2022/11/23 10:16:06;;;;;;;6.13;1.77;;;13.60;99.90;;;;;;5112264;27;20455;-37
2022/11/23 10:18:44;;;;;;;5.53;2.20;;;13.70;99.90;;;;;;5111925;27;20398;-39
2022/11/23 10:21:28;;;;;;;7.90;2.53;;;13.60;99.90;;;;;;5112309;28;20414;-31
2022/11/23 10:24:04;;;;;;;6.00;1.97;;;13.30;99.90;;;;;;5111637;28;20837;-35
2022/11/23 10:26:33;;;;;;;3.87;1.60;;;13.10;99.90;;;;;;5111809;28;20405;-36
2022/11/23 10:29:18;;;;;;;5.17;1.87;;;12.90;99.90;;;;;;5111454;28;20495;-37
2022/11/23 10:31:48;;;;;;;6.27;2.03;;;12.90;99.90;;;;;;5112029;28;20406;-35
2022/11/23 10:34:18;;;;;;;5.07;1.90;;;12.80;99.90;;;;;;5110586;28;20406;-38
2022/11/23 10:36:44;;;;;;;7.03;2.10;;;12.80;99.90;;;;;;5111627;28;20394;-35
2022/11/23 10:39:18;;;;;;;3.63;1.63;;;12.70;99.90;;;;;;5093228;28;20973;-35
2022/11/23 10:41:45;;;;;;;8.50;2.80;;;12.60;99.90;;;;;;5111962;28;20429;-36
2022/11/23 10:44:17;;;;;;;5.80;2.00;;;12.60;99.90;;;;;;5111703;28;20418;-36
2022/11/23 10:46:43;;;;;;;7.13;2.10;;;12.50;99.90;;;;;;5111531;28;20787;-38
2022/11/23 10:49:17;;;;;;;8.27;2.20;;;12.50;99.90;;;;;;5110934;28;20963;-35
2022/11/23 10:51:53;;;;;;;6.40;2.20;;;12.40;99.90;;;;;;5111574;27;20445;-33
2022/11/23 10:54:30;;;;;;;7.80;1.80;;;12.20;99.90;;;;;;5110244;28;20412;-32
2022/11/23 10:56:57;;;;;;;4.17;1.70;;;12.10;99.90;;;;;;5111405;28;20452;-34
2022/11/23 10:59:33;;;;;;;5.90;2.17;;;11.90;99.90;;;;;;5110739;28;20405;-37
2022/11/23 11:02:13;;;;;;;3.97;1.60;;;11.70;99.90;;;;;;5111259;28;20413;-33
2022/11/23 11:04:39;;;;;;;9.07;1.70;;;11.70;99.90;;;;;;5110704;28;20414;-37
2022/11/23 11:07:22;;;;;;;5.23;1.73;;;11.90;99.90;;;;;;5111219;28;20418;-35
2022/11/23 11:09:50;;;;;;;3.43;1.60;;;12.20;99.90;;;;;;5110754;28;20406;-35
2022/11/23 11:12:17;;;;;;;5.63;1.80;;;12.10;99.90;;;;;;5109764;28;20896;-35
2022/11/23 11:15:08;;;;;;;5.23;2.13;;;12.00;99.90;;;;;;5110729;28;20849;-36
2022/11/23 11:17:35;;;;;;;5.13;1.60;;;11.70;99.90;;;;;;5105087;28;20429;-33
2022/11/23 11:20:26;;;;;;;7.40;1.70;;;11.50;99.90;;;;;;5110547;28;20398;-34
2022/11/23 11:22:54;;;;;;;12.23;2.03;;;11.40;99.90;;;;;;5110936;28;20463;-38
2022/11/23 11:25:36;;;;;;;5.97;2.17;;;11.30;99.90;;;;;;5110812;28;20417;-32
2022/11/23 11:28:05;;;;;;;4.20;2.00;;;11.40;99.90;;;;;;5110614;28;20538;-33
2022/11/23 11:30:45;;;;;;;7.97;2.20;;;11.40;99.90;;;;;;5109068;28;20482;-33
2022/11/23 11:33:17;;;;;;;7.80;1.83;;;11.40;99.90;;;;;;5108754;28;20405;-36
2022/11/23 11:35:47;;;;;;;4.87;1.57;;;11.40;99.90;;;;;;5110474;28;20426;-33
2022/11/23 11:38:23;;;;;;;6.80;1.70;;;11.50;99.90;;;;;;5110639;28;20896;-36
2022/11/23 11:40:51;;;;;;;5.33;2.03;;;11.50;99.90;;;;;;5110783;28;20428;-32
2022/11/23 11:43:26;;;;;;;8.00;2.00;;;11.60;99.90;;;;;;5110462;28;20496;-34
2022/11/23 11:45:59;;;;;;;5.23;1.97;;;11.80;99.90;;;;;;5110250;28;20413;-33
2022/11/23 11:48:34;;;;;;;6.90;1.53;;;11.90;99.90;;;;;;5110154;28;20461;-35
2022/11/23 11:51:07;;;;;;;6.40;1.70;;;12.20;99.90;;;;;;5110126;28;20417;-33
2022/11/23 11:53:45;;;;;;;2.83;1.60;;;12.60;99.90;;;;;;5110047;28;20417;-32
2022/11/23 11:56:38;;;;;;;5.33;2.07;;;14.20;99.90;;;;;;5109958;28;20478;-33
2022/11/23 11:59:16;;;;;;;4.00;1.70;;;16.20;99.90;;;;;;5109954;28;20605;-38
2022/11/23 12:01:56;;;;;;;5.60;2.03;;;18.30;96.30;;;;;;5109910;28;20413;-36
2022/11/23 12:04:44;;;;;;;6.93;2.77;;;19.50;92.70;;;;;;5108219;28;20482;-32
2022/11/23 12:07:20;;;;;;;4.50;2.00;;;19.80;90.00;;;;;;5108427;28;20482;-31
2022/11/23 12:09:50;;;;;;;3.80;1.80;;;18.10;91.10;;;;;;5108232;28;21111;-37
2022/11/23 12:12:18;;;;;;;8.87;2.10;;;16.50;92.20;;;;;;5109669;28;20452;-35
2022/11/23 12:14:45;;;;;;;8.00;2.90;;;15.40;95.10;;;;;;5109354;28;20418;-30
2022/11/23 12:17:56;;;;;;;3.33;1.53;;;14.40;96.90;;;;;;5109812;28;20413;-33
2022/11/23 12:20:31;;;;;;;3.00;1.80;;;13.50;98.80;;;;;;5107996;28;20441;-37
2022/11/23 12:23:29;;;;;;;5.10;2.17;;;12.90;99.90;;;;;;5108965;28;20498;-34
2022/11/23 12:26:31;;;;;;;7.10;2.77;;;12.40;99.90;;;;;;5087707;28;20415;-35
2022/11/23 12:29:08;;;;;;;6.27;2.43;;;12.10;99.90;;;;;;5088591;28;20975;-36
2022/11/23 12:31:44;;;;;;;6.00;2.00;;;11.90;99.90;;;;;;5089466;28;20912;-35
2022/11/23 12:34:36;;;;;;;4.20;2.03;;;11.70;99.90;;;;;;5085924;28;20402;-35
2022/11/23 12:37:02;;;;;;;4.20;1.93;;;11.60;99.90;;;;;;5089156;28;20417;-35
2022/11/23 12:39:55;;;;;;;4.93;2.27;;;11.40;99.90;;;;;;5088417;28;20812;-32
2022/11/23 12:42:51;;;;;;;5.03;2.30;;;11.30;99.90;;;;;;5088832;28;20187;-33
2022/11/23 12:45:54;;;;;;;6.13;2.20;;;11.20;99.90;;;;;;5088871;28;20479;-33
2022/11/23 12:48:31;;;;;;;6.33;2.27;;;11.10;99.90;;;;;;5085411;28;20846;-35
2022/11/23 12:51:37;;;;;;;5.43;2.30;;;11.00;99.90;;;;;;5088863;28;20497;-35
2022/11/23 12:54:14;;;;;;;3.77;2.03;;;10.90;99.90;;;;;;5088718;28;20402;-38
2022/11/23 12:56:55;;;;;;;4.00;2.07;;;10.90;99.90;;;;;;5104014;28;20448;-32
2022/11/23 12:59:22;;;;;;;6.43;2.47;;;10.80;99.90;;;;;;5108702;28;20491;-30
2022/11/23 13:01:54;;;;;;;8.07;2.33;;;10.80;99.90;;;;;;5107578;28;20421;-35
2022/11/23 13:04:51;;;;;;;5.10;1.80;;;10.70;99.90;;;;;;5107373;28;20422;-36